sensor_id;sensor_type;location;lat;lon;timestamp;P1;durP1;ratioP1;P2;durP2;ratioP2
49378;SDS011;35254;47.990;-1.608;2023-02-28T00:00:35;2.45;;;1.48;;
49378;SDS011;35254;47.990;-1.608;2023-02-28T00:03:02;2.85;;;1.88;;
49378;SDS011;35254;47.990;-1.608;2023-02-28T00:05:28;1.55;;;1.38;;
49378;SDS011;35254;47.990;-1.608;2023-02-28T00:07:54;1.60;;;1.27;;
49378;SDS011;35254;47.990;-1.608;2023-02-28T00:10:21;3.08;;;1.27;;
49378;SDS011;35254;47.990;-1.608;2023-02-28T00:12:50;1.70;;;1.50;;
49378;SDS011;35254;47.990;-1.608;2023-02-28T00:15:16;1.85;;;1.35;;
49378;SDS011;35254;47.990;-1.608;2023-02-28T00:17:42;1.40;;;1.13;;
49378;SDS011;35254;47.990;-1.608;2023-02-28T00:20:09;2.55;;;1.70;;
49378;SDS011;35254;47.990;-1.608;2023-02-28T00:22:40;7.30;;;1.30;;
49378;SDS011;35254;47.990;-1.608;2023-02-28T00:25:13;5.00;;;1.90;;
49378;SDS011;35254;47.990;-1.608;2023-02-28T00:27:40;1.95;;;1.52;;
49378;SDS011;35254;47.990;-1.608;2023-02-28T00:30:07;2.15;;;1.73;;
49378;SDS011;35254;47.990;-1.608;2023-02-28T00:32:36;3.85;;;2.10;;
49378;SDS011;35254;47.990;-1.608;2023-02-28T00:35:02;1.48;;;1.38;;
49378;SDS011;35254;47.990;-1.608;2023-02-28T00:37:27;2.67;;;1.45;;
49378;SDS011;35254;47.990;-1.608;2023-02-28T00:39:53;1.88;;;1.52;;
49378;SDS011;35254;47.990;-1.608;2023-02-28T00:42:19;3.28;;;1.98;;
49378;SDS011;35254;47.990;-1.608;2023-02-28T00:44:44;3.40;;;1.70;;
49378;SDS011;35254;47.990;-1.608;2023-02-28T00:47:10;3.38;;;1.30;;
49378;SDS011;35254;47.990;-1.608;2023-02-28T00:49:35;2.20;;;1.60;;
49378;SDS011;35254;47.990;-1.608;2023-02-28T00:52:01;1.73;;;1.50;;
49378;SDS011;35254;47.990;-1.608;2023-02-28T00:54:27;2.08;;;1.38;;
49378;SDS011;35254;47.990;-1.608;2023-02-28T00:56:53;1.92;;;1.55;;
49378;SDS011;35254;47.990;-1.608;2023-02-28T00:59:18;2.38;;;1.60;;
49378;SDS011;35254;47.990;-1.608;2023-02-28T01:01:45;3.88;;;1.45;;
49378;SDS011;35254;47.990;-1.608;2023-02-28T01:04:11;5.25;;;1.52;;
49378;SDS011;35254;47.990;-1.608;2023-02-28T01:06:37;1.98;;;1.48;;
49378;SDS011;35254;47.990;-1.608;2023-02-28T01:09:04;2.65;;;1.48;;
49378;SDS011;35254;47.990;-1.608;2023-02-28T01:11:31;2.33;;;1.45;;
49378;SDS011;35254;47.990;-1.608;2023-02-28T01:13:57;2.15;;;1.73;;
49378;SDS011;35254;47.990;-1.608;2023-02-28T01:16:23;3.00;;;1.88;;
49378;SDS011;35254;47.990;-1.608;2023-02-28T01:18:49;1.98;;;1.30;;
49378;SDS011;35254;47.990;-1.608;2023-02-28T01:21:16;2.80;;;1.55;;
49378;SDS011;35254;47.990;-1.608;2023-02-28T01:23:43;4.90;;;1.65;;
49378;SDS011;35254;47.990;-1.608;2023-02-28T01:28:36;1.35;;;1.10;;
49378;SDS011;35254;47.990;-1.608;2023-02-28T01:31:02;3.88;;;1.60;;
49378;SDS011;35254;47.990;-1.608;2023-02-28T01:33:28;2.65;;;1.63;;
49378;SDS011;35254;47.990;-1.608;2023-02-28T01:35:58;1.67;;;1.30;;
49378;SDS011;35254;47.990;-1.608;2023-02-28T01:38:28;2.20;;;1.45;;
49378;SDS011;35254;47.990;-1.608;2023-02-28T01:40:54;1.65;;;1.35;;
49378;SDS011;35254;47.990;-1.608;2023-02-28T01:43:24;2.25;;;1.20;;
49378;SDS011;35254;47.990;-1.608;2023-02-28T01:45:50;1.92;;;1.48;;
49378;SDS011;35254;47.990;-1.608;2023-02-28T01:48:17;2.97;;;1.13;;
49378;SDS011;35254;47.990;-1.608;2023-02-28T01:50:44;4.00;;;1.38;;
49378;SDS011;35254;47.990;-1.608;2023-02-28T01:53:13;1.90;;;1.48;;
49378;SDS011;35254;47.990;-1.608;2023-02-28T01:55:42;1.92;;;1.50;;
49378;SDS011;35254;47.990;-1.608;2023-02-28T01:58:12;2.97;;;1.40;;
49378;SDS011;35254;47.990;-1.608;2023-02-28T02:00:38;1.63;;;1.42;;
49378;SDS011;35254;47.990;-1.608;2023-02-28T02:03:09;2.60;;;1.35;;
49378;SDS011;35254;47.990;-1.608;2023-02-28T02:05:38;1.80;;;1.50;;
49378;SDS011;35254;47.990;-1.608;2023-02-28T02:08:06;2.33;;;1.10;;
49378;SDS011;35254;47.990;-1.608;2023-02-28T02:10:48;4.97;;;1.45;;
49378;SDS011;35254;47.990;-1.608;2023-02-28T02:13:28;2.92;;;1.45;;
49378;SDS011;35254;47.990;-1.608;2023-02-28T02:18:53;1.75;;;1.15;;
49378;SDS011;35254;47.990;-1.608;2023-02-28T02:34:51;4.63;;;1.25;;
49378;SDS011;35254;47.990;-1.608;2023-02-28T02:38:02;2.67;;;1.42;;
49378;SDS011;35254;47.990;-1.608;2023-02-28T02:46:06;1.17;;;0.98;;
49378;SDS011;35254;47.990;-1.608;2023-02-28T02:48:38;1.67;;;1.58;;
49378;SDS011;35254;47.990;-1.608;2023-02-28T02:51:09;1.52;;;1.42;;
49378;SDS011;35254;47.990;-1.608;2023-02-28T02:53:52;1.58;;;1.40;;
49378;SDS011;35254;47.990;-1.608;2023-02-28T02:56:23;1.65;;;1.25;;
49378;SDS011;35254;47.990;-1.608;2023-02-28T02:58:52;3.53;;;1.20;;
49378;SDS011;35254;47.990;-1.608;2023-02-28T03:01:21;2.67;;;1.48;;
49378;SDS011;35254;47.990;-1.608;2023-02-28T03:04:11;1.65;;;1.45;;
49378;SDS011;35254;47.990;-1.608;2023-02-28T03:06:41;1.35;;;1.20;;
49378;SDS011;35254;47.990;-1.608;2023-02-28T03:09:07;2.70;;;1.63;;
49378;SDS011;35254;47.990;-1.608;2023-02-28T03:11:33;1.80;;;1.30;;
49378;SDS011;35254;47.990;-1.608;2023-02-28T03:16:53;2.63;;;1.10;;
49378;SDS011;35254;47.990;-1.608;2023-02-28T03:22:17;2.35;;;1.38;;
49378;SDS011;35254;47.990;-1.608;2023-02-28T03:24:47;4.25;;;1.23;;
49378;SDS011;35254;47.990;-1.608;2023-02-28T03:27:24;1.80;;;1.30;;
49378;SDS011;35254;47.990;-1.608;2023-02-28T03:32:35;1.98;;;1.13;;
49378;SDS011;35254;47.990;-1.608;2023-02-28T03:35:07;1.73;;;1.20;;
49378;SDS011;35254;47.990;-1.608;2023-02-28T03:37:58;2.95;;;1.58;;
49378;SDS011;35254;47.990;-1.608;2023-02-28T03:40:32;1.95;;;1.58;;
49378;SDS011;35254;47.990;-1.608;2023-02-28T03:43:02;1.48;;;1.35;;
49378;SDS011;35254;47.990;-1.608;2023-02-28T03:45:33;1.35;;;1.25;;
49378;SDS011;35254;47.990;-1.608;2023-02-28T03:48:03;3.80;;;1.20;;
49378;SDS011;35254;47.990;-1.608;2023-02-28T03:50:41;2.50;;;1.50;;
49378;SDS011;35254;47.990;-1.608;2023-02-28T03:55:39;1.42;;;1.10;;
49378;SDS011;35254;47.990;-1.608;2023-02-28T03:58:11;1.30;;;1.20;;
49378;SDS011;35254;47.990;-1.608;2023-02-28T04:01:09;2.05;;;1.20;;
49378;SDS011;35254;47.990;-1.608;2023-02-28T04:03:45;2.20;;;2.08;;
49378;SDS011;35254;47.990;-1.608;2023-02-28T04:06:15;1.83;;;1.33;;
49378;SDS011;35254;47.990;-1.608;2023-02-28T04:08:46;2.20;;;1.50;;
49378;SDS011;35254;47.990;-1.608;2023-02-28T04:11:26;2.50;;;1.30;;
49378;SDS011;35254;47.990;-1.608;2023-02-28T04:14:05;1.50;;;1.20;;
49378;SDS011;35254;47.990;-1.608;2023-02-28T04:16:33;1.65;;;1.20;;
49378;SDS011;35254;47.990;-1.608;2023-02-28T04:19:00;1.40;;;1.30;;
49378;SDS011;35254;47.990;-1.608;2023-02-28T04:21:31;2.38;;;1.58;;
49378;SDS011;35254;47.990;-1.608;2023-02-28T04:23:58;1.45;;;0.93;;
49378;SDS011;35254;47.990;-1.608;2023-02-28T04:26:28;1.63;;;1.08;;
49378;SDS011;35254;47.990;-1.608;2023-02-28T04:28:58;1.58;;;1.40;;
49378;SDS011;35254;47.990;-1.608;2023-02-28T04:31:24;4.00;;;1.33;;
49378;SDS011;35254;47.990;-1.608;2023-02-28T04:33:50;2.63;;;1.35;;
49378;SDS011;35254;47.990;-1.608;2023-02-28T04:36:16;1.30;;;1.20;;
49378;SDS011;35254;47.990;-1.608;2023-02-28T04:38:45;1.20;;;1.13;;
49378;SDS011;35254;47.990;-1.608;2023-02-28T04:41:11;1.35;;;1.25;;
49378;SDS011;35254;47.990;-1.608;2023-02-28T04:43:37;1.10;;;0.95;;
49378;SDS011;35254;47.990;-1.608;2023-02-28T04:46:03;1.80;;;1.20;;
49378;SDS011;35254;47.990;-1.608;2023-02-28T04:48:32;1.50;;;1.10;;
49378;SDS011;35254;47.990;-1.608;2023-02-28T04:51:02;2.50;;;1.17;;
49378;SDS011;35254;47.990;-1.608;2023-02-28T04:53:29;1.35;;;1.17;;
49378;SDS011;35254;47.990;-1.608;2023-02-28T04:55:56;1.90;;;1.27;;
49378;SDS011;35254;47.990;-1.608;2023-02-28T04:58:22;2.55;;;1.33;;
49378;SDS011;35254;47.990;-1.608;2023-02-28T05:00:49;1.85;;;1.40;;
49378;SDS011;35254;47.990;-1.608;2023-02-28T05:03:17;1.50;;;1.20;;
49378;SDS011;35254;47.990;-1.608;2023-02-28T05:05:43;6.57;;;1.30;;
49378;SDS011;35254;47.990;-1.608;2023-02-28T05:08:09;5.25;;;1.35;;
49378;SDS011;35254;47.990;-1.608;2023-02-28T05:10:35;1.95;;;1.42;;
49378;SDS011;35254;47.990;-1.608;2023-02-28T05:13:01;3.35;;;1.52;;
49378;SDS011;35254;47.990;-1.608;2023-02-28T05:15:27;2.67;;;1.30;;
49378;SDS011;35254;47.990;-1.608;2023-02-28T05:17:53;2.38;;;1.48;;
49378;SDS011;35254;47.990;-1.608;2023-02-28T05:20:18;3.65;;;1.00;;
49378;SDS011;35254;47.990;-1.608;2023-02-28T05:22:44;8.90;;;1.23;;
49378;SDS011;35254;47.990;-1.608;2023-02-28T05:25:16;2.72;;;1.42;;
49378;SDS011;35254;47.990;-1.608;2023-02-28T05:27:44;1.90;;;1.20;;
49378;SDS011;35254;47.990;-1.608;2023-02-28T05:30:10;4.38;;;1.77;;
49378;SDS011;35254;47.990;-1.608;2023-02-28T05:32:39;2.00;;;1.27;;
49378;SDS011;35254;47.990;-1.608;2023-02-28T05:35:09;2.05;;;1.38;;
49378;SDS011;35254;47.990;-1.608;2023-02-28T05:37:36;2.35;;;1.40;;
49378;SDS011;35254;47.990;-1.608;2023-02-28T05:40:03;4.72;;;1.42;;
49378;SDS011;35254;47.990;-1.608;2023-02-28T05:42:31;1.75;;;1.30;;
49378;SDS011;35254;47.990;-1.608;2023-02-28T05:44:57;2.55;;;1.27;;
49378;SDS011;35254;47.990;-1.608;2023-02-28T05:47:22;1.85;;;1.08;;
49378;SDS011;35254;47.990;-1.608;2023-02-28T05:49:48;4.65;;;1.17;;
49378;SDS011;35254;47.990;-1.608;2023-02-28T05:52:14;1.67;;;1.38;;
49378;SDS011;35254;47.990;-1.608;2023-02-28T05:54:40;0.85;;;0.85;;
49378;SDS011;35254;47.990;-1.608;2023-02-28T05:57:06;2.35;;;1.23;;
49378;SDS011;35254;47.990;-1.608;2023-02-28T05:59:31;1.50;;;1.40;;
49378;SDS011;35254;47.990;-1.608;2023-02-28T06:01:57;3.35;;;1.40;;
49378;SDS011;35254;47.990;-1.608;2023-02-28T06:04:22;1.80;;;1.20;;
49378;SDS011;35254;47.990;-1.608;2023-02-28T06:06:48;1.45;;;1.30;;
49378;SDS011;35254;47.990;-1.608;2023-02-28T06:09:15;1.80;;;1.50;;
49378;SDS011;35254;47.990;-1.608;2023-02-28T06:11:41;1.27;;;1.17;;
49378;SDS011;35254;47.990;-1.608;2023-02-28T06:14:09;1.52;;;1.30;;
49378;SDS011;35254;47.990;-1.608;2023-02-28T06:16:39;1.70;;;1.58;;
49378;SDS011;35254;47.990;-1.608;2023-02-28T06:19:05;1.50;;;1.30;;
49378;SDS011;35254;47.990;-1.608;2023-02-28T06:21:31;1.40;;;1.20;;
49378;SDS011;35254;47.990;-1.608;2023-02-28T06:23:57;2.25;;;1.27;;
49378;SDS011;35254;47.990;-1.608;2023-02-28T06:26:23;1.58;;;1.30;;
49378;SDS011;35254;47.990;-1.608;2023-02-28T06:28:49;1.70;;;1.40;;
49378;SDS011;35254;47.990;-1.608;2023-02-28T06:31:16;5.57;;;1.38;;
49378;SDS011;35254;47.990;-1.608;2023-02-28T06:33:43;2.28;;;1.30;;
49378;SDS011;35254;47.990;-1.608;2023-02-28T06:36:10;2.33;;;1.67;;
49378;SDS011;35254;47.990;-1.608;2023-02-28T06:38:37;2.08;;;1.73;;
49378;SDS011;35254;47.990;-1.608;2023-02-28T06:41:03;1.38;;;1.25;;
49378;SDS011;35254;47.990;-1.608;2023-02-28T06:43:32;1.55;;;1.20;;
49378;SDS011;35254;47.990;-1.608;2023-02-28T06:45:59;2.00;;;1.23;;
49378;SDS011;35254;47.990;-1.608;2023-02-28T06:48:26;1.67;;;1.40;;
49378;SDS011;35254;47.990;-1.608;2023-02-28T06:51:00;1.75;;;1.30;;
49378;SDS011;35254;47.990;-1.608;2023-02-28T06:53:31;3.80;;;1.40;;
49378;SDS011;35254;47.990;-1.608;2023-02-28T06:55:57;2.75;;;1.48;;
49378;SDS011;35254;47.990;-1.608;2023-02-28T06:58:22;4.82;;;2.03;;
49378;SDS011;35254;47.990;-1.608;2023-02-28T07:00:50;3.75;;;1.77;;
49378;SDS011;35254;47.990;-1.608;2023-02-28T07:03:17;4.90;;;1.38;;
49378;SDS011;35254;47.990;-1.608;2023-02-28T07:05:43;3.70;;;1.73;;
49378;SDS011;35254;47.990;-1.608;2023-02-28T07:08:09;5.90;;;1.83;;
49378;SDS011;35254;47.990;-1.608;2023-02-28T07:10:37;3.65;;;1.58;;
49378;SDS011;35254;47.990;-1.608;2023-02-28T07:13:03;9.63;;;1.70;;
49378;SDS011;35254;47.990;-1.608;2023-02-28T07:15:29;9.68;;;1.70;;
49378;SDS011;35254;47.990;-1.608;2023-02-28T07:17:55;5.05;;;1.90;;
49378;SDS011;35254;47.990;-1.608;2023-02-28T07:20:21;6.57;;;2.30;;
49378;SDS011;35254;47.990;-1.608;2023-02-28T07:22:48;8.50;;;2.40;;
49378;SDS011;35254;47.990;-1.608;2023-02-28T07:25:20;5.53;;;3.67;;
49378;SDS011;35254;47.990;-1.608;2023-02-28T07:27:50;3.60;;;2.67;;
49378;SDS011;35254;47.990;-1.608;2023-02-28T07:30:16;5.65;;;4.18;;
49378;SDS011;35254;47.990;-1.608;2023-02-28T07:32:42;5.63;;;3.45;;
49378;SDS011;35254;47.990;-1.608;2023-02-28T07:35:08;7.13;;;3.22;;
49378;SDS011;35254;47.990;-1.608;2023-02-28T07:37:34;9.25;;;3.83;;
49378;SDS011;35254;47.990;-1.608;2023-02-28T07:40:05;8.57;;;3.58;;
49378;SDS011;35254;47.990;-1.608;2023-02-28T07:42:33;5.57;;;3.72;;
49378;SDS011;35254;47.990;-1.608;2023-02-28T07:45:05;6.35;;;3.78;;
49378;SDS011;35254;47.990;-1.608;2023-02-28T07:47:32;5.47;;;3.83;;
49378;SDS011;35254;47.990;-1.608;2023-02-28T07:49:58;6.53;;;4.32;;
49378;SDS011;35254;47.990;-1.608;2023-02-28T07:52:24;5.50;;;3.83;;
49378;SDS011;35254;47.990;-1.608;2023-02-28T07:54:50;10.18;;;3.72;;
49378;SDS011;35254;47.990;-1.608;2023-02-28T07:57:16;3.88;;;3.47;;
49378;SDS011;35254;47.990;-1.608;2023-02-28T07:59:42;4.05;;;3.40;;
49378;SDS011;35254;47.990;-1.608;2023-02-28T08:02:12;4.10;;;3.05;;
49378;SDS011;35254;47.990;-1.608;2023-02-28T08:04:39;6.53;;;3.33;;
49378;SDS011;35254;47.990;-1.608;2023-02-28T08:07:05;5.97;;;2.88;;
49378;SDS011;35254;47.990;-1.608;2023-02-28T08:09:31;5.45;;;2.65;;
49378;SDS011;35254;47.990;-1.608;2023-02-28T08:11:57;4.57;;;3.20;;
49378;SDS011;35254;47.990;-1.608;2023-02-28T08:14:22;3.35;;;2.58;;
49378;SDS011;35254;47.990;-1.608;2023-02-28T08:16:48;4.97;;;2.42;;
49378;SDS011;35254;47.990;-1.608;2023-02-28T08:19:14;4.28;;;2.53;;
49378;SDS011;35254;47.990;-1.608;2023-02-28T08:21:39;4.43;;;2.50;;
49378;SDS011;35254;47.990;-1.608;2023-02-28T08:24:05;6.57;;;2.70;;
49378;SDS011;35254;47.990;-1.608;2023-02-28T08:26:31;4.80;;;2.45;;
49378;SDS011;35254;47.990;-1.608;2023-02-28T08:28:57;5.97;;;3.13;;
49378;SDS011;35254;47.990;-1.608;2023-02-28T08:31:22;3.17;;;2.30;;
49378;SDS011;35254;47.990;-1.608;2023-02-28T08:33:48;2.95;;;2.17;;
49378;SDS011;35254;47.990;-1.608;2023-02-28T08:36:16;4.03;;;2.40;;
49378;SDS011;35254;47.990;-1.608;2023-02-28T08:38:42;3.80;;;2.22;;
49378;SDS011;35254;47.990;-1.608;2023-02-28T08:41:10;2.50;;;2.20;;
49378;SDS011;35254;47.990;-1.608;2023-02-28T08:43:37;4.78;;;1.73;;
49378;SDS011;35254;47.990;-1.608;2023-02-28T08:46:04;2.72;;;1.90;;
49378;SDS011;35254;47.990;-1.608;2023-02-28T08:48:30;3.50;;;2.42;;
49378;SDS011;35254;47.990;-1.608;2023-02-28T08:51:01;2.25;;;1.85;;
49378;SDS011;35254;47.990;-1.608;2023-02-28T08:53:28;2.00;;;1.88;;
49378;SDS011;35254;47.990;-1.608;2023-02-28T08:58:27;3.63;;;1.83;;
49378;SDS011;35254;47.990;-1.608;2023-02-28T09:00:53;3.67;;;2.40;;
49378;SDS011;35254;47.990;-1.608;2023-02-28T09:03:19;2.95;;;1.80;;
49378;SDS011;35254;47.990;-1.608;2023-02-28T09:05:53;2.22;;;1.73;;
49378;SDS011;35254;47.990;-1.608;2023-02-28T09:08:19;2.40;;;1.77;;
49378;SDS011;35254;47.990;-1.608;2023-02-28T09:10:44;3.72;;;2.17;;
49378;SDS011;35254;47.990;-1.608;2023-02-28T09:13:10;4.75;;;1.75;;
49378;SDS011;35254;47.990;-1.608;2023-02-28T09:15:38;4.00;;;2.15;;
49378;SDS011;35254;47.990;-1.608;2023-02-28T09:18:04;3.05;;;1.90;;
49378;SDS011;35254;47.990;-1.608;2023-02-28T09:20:30;4.82;;;2.53;;
49378;SDS011;35254;47.990;-1.608;2023-02-28T09:22:56;4.32;;;2.35;;
49378;SDS011;35254;47.990;-1.608;2023-02-28T09:25:22;2.90;;;2.70;;
49378;SDS011;35254;47.990;-1.608;2023-02-28T09:27:47;2.47;;;2.28;;
49378;SDS011;35254;47.990;-1.608;2023-02-28T09:30:13;3.67;;;2.92;;
49378;SDS011;35254;47.990;-1.608;2023-02-28T09:32:39;3.75;;;2.42;;
49378;SDS011;35254;47.990;-1.608;2023-02-28T09:35:05;2.55;;;2.35;;
49378;SDS011;35254;47.990;-1.608;2023-02-28T09:37:31;2.70;;;2.22;;
49378;SDS011;35254;47.990;-1.608;2023-02-28T09:39:57;2.50;;;2.30;;
49378;SDS011;35254;47.990;-1.608;2023-02-28T09:42:30;8.68;;;2.13;;
49378;SDS011;35254;47.990;-1.608;2023-02-28T09:44:58;2.03;;;1.80;;
49378;SDS011;35254;47.990;-1.608;2023-02-28T09:47:36;2.88;;;1.85;;
49378;SDS011;35254;47.990;-1.608;2023-02-28T09:52:54;3.42;;;2.33;;
49378;SDS011;35254;47.990;-1.608;2023-02-28T09:58:11;6.05;;;2.28;;
49378;SDS011;35254;47.990;-1.608;2023-02-28T10:00:50;2.50;;;2.20;;
49378;SDS011;35254;47.990;-1.608;2023-02-28T10:03:35;2.38;;;1.73;;
49378;SDS011;35254;47.990;-1.608;2023-02-28T10:06:07;8.30;;;2.00;;
49378;SDS011;35254;47.990;-1.608;2023-02-28T10:09:02;2.20;;;1.50;;
49378;SDS011;35254;47.990;-1.608;2023-02-28T10:11:32;2.78;;;1.80;;
49378;SDS011;35254;47.990;-1.608;2023-02-28T10:14:01;2.45;;;1.67;;
49378;SDS011;35254;47.990;-1.608;2023-02-28T10:17:14;2.72;;;1.83;;
49378;SDS011;35254;47.990;-1.608;2023-02-28T10:21:55;1.92;;;1.77;;
49378;SDS011;35254;47.990;-1.608;2023-02-28T10:24:40;2.33;;;1.50;;
49378;SDS011;35254;47.990;-1.608;2023-02-28T10:29:37;2.80;;;1.67;;
49378;SDS011;35254;47.990;-1.608;2023-02-28T10:32:08;4.07;;;1.67;;
49378;SDS011;35254;47.990;-1.608;2023-02-28T10:34:37;2.10;;;1.50;;
49378;SDS011;35254;47.990;-1.608;2023-02-28T10:37:03;1.30;;;1.15;;
49378;SDS011;35254;47.990;-1.608;2023-02-28T10:42:24;5.00;;;1.48;;
49378;SDS011;35254;47.990;-1.608;2023-02-28T10:47:37;1.40;;;1.25;;
49378;SDS011;35254;47.990;-1.608;2023-02-28T10:56:05;3.22;;;1.50;;
49378;SDS011;35254;47.990;-1.608;2023-02-28T11:03:57;1.63;;;1.13;;
49378;SDS011;35254;47.990;-1.608;2023-02-28T11:06:23;1.75;;;1.30;;
49378;SDS011;35254;47.990;-1.608;2023-02-28T11:08:58;1.50;;;1.02;;
49378;SDS011;35254;47.990;-1.608;2023-02-28T11:11:30;1.60;;;1.27;;
49378;SDS011;35254;47.990;-1.608;2023-02-28T11:14:14;1.88;;;1.25;;
49378;SDS011;35254;47.990;-1.608;2023-02-28T11:16:46;1.48;;;1.08;;
49378;SDS011;35254;47.990;-1.608;2023-02-28T11:19:33;6.75;;;1.00;;
49378;SDS011;35254;47.990;-1.608;2023-02-28T11:24:31;2.17;;;1.10;;
49378;SDS011;35254;47.990;-1.608;2023-02-28T11:29:27;2.35;;;1.55;;
49378;SDS011;35254;47.990;-1.608;2023-02-28T11:32:20;2.15;;;1.05;;
49378;SDS011;35254;47.990;-1.608;2023-02-28T11:34:43;2.03;;;1.17;;
49378;SDS011;35254;47.990;-1.608;2023-02-28T11:37:13;2.92;;;1.17;;
49378;SDS011;35254;47.990;-1.608;2023-02-28T11:39:43;1.73;;;1.25;;
49378;SDS011;35254;47.990;-1.608;2023-02-28T11:42:21;1.45;;;1.27;;
49378;SDS011;35254;47.990;-1.608;2023-02-28T12:02:20;3.55;;;1.77;;
49378;SDS011;35254;47.990;-1.608;2023-02-28T12:10:44;2.38;;;1.40;;
49378;SDS011;35254;47.990;-1.608;2023-02-28T12:13:41;1.90;;;1.40;;
49378;SDS011;35254;47.990;-1.608;2023-02-28T12:16:47;4.37;;;1.40;;
49378;SDS011;35254;47.990;-1.608;2023-02-28T12:22:04;3.50;;;1.20;;
49378;SDS011;35254;47.990;-1.608;2023-02-28T12:27:31;1.48;;;1.38;;
49378;SDS011;35254;47.990;-1.608;2023-02-28T12:32:33;1.48;;;1.27;;
49378;SDS011;35254;47.990;-1.608;2023-02-28T12:35:12;4.75;;;1.58;;
49378;SDS011;35254;47.990;-1.608;2023-02-28T12:37:42;1.98;;;1.85;;
49378;SDS011;35254;47.990;-1.608;2023-02-28T12:40:23;2.63;;;2.08;;
49378;SDS011;35254;47.990;-1.608;2023-02-28T12:42:58;2.33;;;2.00;;
49378;SDS011;35254;47.990;-1.608;2023-02-28T12:45:37;3.33;;;2.70;;
49378;SDS011;35254;47.990;-1.608;2023-02-28T12:48:15;2.78;;;2.42;;
49378;SDS011;35254;47.990;-1.608;2023-02-28T12:50:47;2.97;;;2.55;;
49378;SDS011;35254;47.990;-1.608;2023-02-28T12:56:16;2.83;;;2.50;;
49378;SDS011;35254;47.990;-1.608;2023-02-28T13:10:43;1.83;;;1.42;;
49378;SDS011;35254;47.990;-1.608;2023-02-28T13:13:20;1.65;;;1.55;;
49378;SDS011;35254;47.990;-1.608;2023-02-28T13:16:04;2.58;;;1.55;;
49378;SDS011;35254;47.990;-1.608;2023-02-28T13:21:08;1.83;;;1.60;;
49378;SDS011;35254;47.990;-1.608;2023-02-28T13:29:27;1.45;;;1.30;;
49378;SDS011;35254;47.990;-1.608;2023-02-28T13:39:52;2.28;;;1.42;;
49378;SDS011;35254;47.990;-1.608;2023-02-28T14:07:09;2.35;;;0.98;;
49378;SDS011;35254;47.990;-1.608;2023-02-28T14:10:04;1.02;;;0.85;;
49378;SDS011;35254;47.990;-1.608;2023-02-28T14:20:26;3.22;;;0.90;;
49378;SDS011;35254;47.990;-1.608;2023-02-28T14:31:13;0.88;;;0.88;;
49378;SDS011;35254;47.990;-1.608;2023-02-28T14:36:42;0.88;;;0.77;;
49378;SDS011;35254;47.990;-1.608;2023-02-28T14:41:38;4.18;;;0.88;;
49378;SDS011;35254;47.990;-1.608;2023-02-28T14:44:22;5.13;;;1.73;;
49378;SDS011;35254;47.990;-1.608;2023-02-28T14:46:58;0.80;;;0.80;;
49378;SDS011;35254;47.990;-1.608;2023-02-28T14:49:31;1.40;;;0.70;;
49378;SDS011;35254;47.990;-1.608;2023-02-28T14:54:53;0.60;;;0.50;;
49378;SDS011;35254;47.990;-1.608;2023-02-28T14:57:26;2.08;;;0.80;;
49378;SDS011;35254;47.990;-1.608;2023-02-28T15:02:39;3.15;;;1.00;;
49378;SDS011;35254;47.990;-1.608;2023-02-28T15:07:45;1.15;;;0.90;;
49378;SDS011;35254;47.990;-1.608;2023-02-28T15:10:16;3.20;;;0.90;;
49378;SDS011;35254;47.990;-1.608;2023-02-28T15:12:47;1.27;;;0.80;;
49378;SDS011;35254;47.990;-1.608;2023-02-28T15:15:35;1.17;;;0.63;;
49378;SDS011;35254;47.990;-1.608;2023-02-28T15:21:11;0.70;;;0.65;;
49378;SDS011;35254;47.990;-1.608;2023-02-28T15:23:43;1.95;;;0.77;;
49378;SDS011;35254;47.990;-1.608;2023-02-28T15:26:33;2.25;;;1.02;;
49378;SDS011;35254;47.990;-1.608;2023-02-28T15:29:07;0.85;;;0.75;;
49378;SDS011;35254;47.990;-1.608;2023-02-28T15:31:43;1.13;;;0.60;;
49378;SDS011;35254;47.990;-1.608;2023-02-28T15:37:06;1.55;;;0.75;;
49378;SDS011;35254;47.990;-1.608;2023-02-28T15:42:21;2.17;;;0.60;;
49378;SDS011;35254;47.990;-1.608;2023-02-28T15:44:48;0.70;;;0.70;;
49378;SDS011;35254;47.990;-1.608;2023-02-28T15:47:22;1.02;;;0.73;;
49378;SDS011;35254;47.990;-1.608;2023-02-28T15:52:42;0.80;;;0.80;;
49378;SDS011;35254;47.990;-1.608;2023-02-28T15:57:44;1.48;;;0.70;;
49378;SDS011;35254;47.990;-1.608;2023-02-28T16:00:16;1.50;;;1.00;;
49378;SDS011;35254;47.990;-1.608;2023-02-28T16:02:45;3.95;;;1.02;;
49378;SDS011;35254;47.990;-1.608;2023-02-28T16:07:40;0.85;;;0.68;;
49378;SDS011;35254;47.990;-1.608;2023-02-28T16:10:09;1.13;;;1.00;;
49378;SDS011;35254;47.990;-1.608;2023-02-28T16:12:36;3.25;;;1.10;;
49378;SDS011;35254;47.990;-1.608;2023-02-28T16:17:46;2.30;;;0.80;;
49378;SDS011;35254;47.990;-1.608;2023-02-28T16:20:16;0.73;;;0.70;;
49378;SDS011;35254;47.990;-1.608;2023-02-28T16:22:43;1.58;;;0.80;;
49378;SDS011;35254;47.990;-1.608;2023-02-28T16:25:14;1.27;;;0.80;;
49378;SDS011;35254;47.990;-1.608;2023-02-28T16:27:42;1.77;;;1.00;;
49378;SDS011;35254;47.990;-1.608;2023-02-28T16:30:15;0.82;;;0.70;;
49378;SDS011;35254;47.990;-1.608;2023-02-28T16:32:52;1.00;;;0.60;;
49378;SDS011;35254;47.990;-1.608;2023-02-28T16:35:19;1.40;;;1.00;;
49378;SDS011;35254;47.990;-1.608;2023-02-28T16:37:46;3.30;;;0.77;;
49378;SDS011;35254;47.990;-1.608;2023-02-28T16:40:16;3.33;;;1.13;;
49378;SDS011;35254;47.990;-1.608;2023-02-28T16:42:46;0.95;;;0.85;;
49378;SDS011;35254;47.990;-1.608;2023-02-28T16:45:17;1.27;;;0.80;;
49378;SDS011;35254;47.990;-1.608;2023-02-28T16:47:50;1.60;;;0.88;;
49378;SDS011;35254;47.990;-1.608;2023-02-28T16:50:17;2.10;;;1.20;;
49378;SDS011;35254;47.990;-1.608;2023-02-28T16:52:53;3.35;;;2.03;;
49378;SDS011;35254;47.990;-1.608;2023-02-28T16:55:20;1.23;;;0.75;;
49378;SDS011;35254;47.990;-1.608;2023-02-28T16:57:49;1.60;;;0.90;;
49378;SDS011;35254;47.990;-1.608;2023-02-28T17:00:18;1.25;;;0.88;;
49378;SDS011;35254;47.990;-1.608;2023-02-28T17:02:44;1.80;;;1.10;;
49378;SDS011;35254;47.990;-1.608;2023-02-28T17:05:12;2.55;;;1.00;;
49378;SDS011;35254;47.990;-1.608;2023-02-28T17:07:40;1.17;;;1.00;;
49378;SDS011;35254;47.990;-1.608;2023-02-28T17:10:25;0.95;;;0.90;;
49378;SDS011;35254;47.990;-1.608;2023-02-28T17:12:51;1.45;;;0.90;;
49378;SDS011;35254;47.990;-1.608;2023-02-28T17:15:18;3.60;;;1.35;;
49378;SDS011;35254;47.990;-1.608;2023-02-28T17:17:45;2.42;;;0.93;;
49378;SDS011;35254;47.990;-1.608;2023-02-28T17:20:20;1.23;;;1.13;;
49378;SDS011;35254;47.990;-1.608;2023-02-28T17:22:51;3.03;;;1.13;;
49378;SDS011;35254;47.990;-1.608;2023-02-28T17:25:18;3.50;;;1.15;;
49378;SDS011;35254;47.990;-1.608;2023-02-28T17:27:44;1.70;;;1.00;;
49378;SDS011;35254;47.990;-1.608;2023-02-28T17:30:14;1.63;;;1.48;;
49378;SDS011;35254;47.990;-1.608;2023-02-28T17:32:41;1.83;;;1.13;;
49378;SDS011;35254;47.990;-1.608;2023-02-28T17:35:07;1.45;;;1.13;;
49378;SDS011;35254;47.990;-1.608;2023-02-28T17:37:33;2.60;;;1.13;;
49378;SDS011;35254;47.990;-1.608;2023-02-28T17:39:59;3.15;;;0.95;;
49378;SDS011;35254;47.990;-1.608;2023-02-28T17:42:25;1.52;;;1.35;;
49378;SDS011;35254;47.990;-1.608;2023-02-28T17:44:51;1.52;;;1.40;;
49378;SDS011;35254;47.990;-1.608;2023-02-28T17:47:16;1.83;;;1.17;;
49378;SDS011;35254;47.990;-1.608;2023-02-28T17:49:42;1.70;;;1.60;;
49378;SDS011;35254;47.990;-1.608;2023-02-28T17:52:08;1.98;;;1.70;;
49378;SDS011;35254;47.990;-1.608;2023-02-28T17:54:34;3.88;;;1.17;;
49378;SDS011;35254;47.990;-1.608;2023-02-28T17:56:59;3.72;;;2.03;;
49378;SDS011;35254;47.990;-1.608;2023-02-28T17:59:25;1.85;;;1.33;;
49378;SDS011;35254;47.990;-1.608;2023-02-28T18:01:58;3.42;;;1.90;;
49378;SDS011;35254;47.990;-1.608;2023-02-28T18:04:24;5.15;;;1.50;;
49378;SDS011;35254;47.990;-1.608;2023-02-28T18:06:51;1.63;;;1.50;;
49378;SDS011;35254;47.990;-1.608;2023-02-28T18:09:19;5.38;;;1.92;;
49378;SDS011;35254;47.990;-1.608;2023-02-28T18:11:50;1.80;;;1.30;;
49378;SDS011;35254;47.990;-1.608;2023-02-28T18:14:17;3.85;;;1.73;;